Ancona Airport

Airport
ICAO code: 
LIPY
IATA Code: 
AOI
Summary
ICAO Region: 
EUR
Territory: 
Location: 
Falconara, Marche
Serving: 
Ancona
Elevation: 
49 ft
Coordinates: 
Aerial View: 
43° 37' 0" N, 13° 21' 36" E
Metar
Observation
LIPY 240550Z AUTO VRB01KT 8000 FEW006/// 01/00 Q1030
Station
Falconara
Date/Time
2022-01-24 05:50:00
Wind speed
01 kts
Lowest cloud amount
few clouds
Temperature
1°C
Dew point
0°C
Humidity
93%
QNH
1030 hPa
Weather condition
n/a

International airport serving Ancona, Italy.

Climatology

Humid “subtropical” climate (Köppen climate classification Cfa) - characterized by hot, humid summers and cool winters. Significant amounts of precipitation occur in all seasons in most areas. Winter rainfall (and sometimes snowfall) is associated with large storms that the westerlies steer from west to east. Most summer rainfall occurs during thunderstorms.

Runways

Designator Length Width Surface Rops
4/22 2962 45 ASP Yes/Yes
Airport map: 
Aerial View: 

SKYbrary Partners:

Safety knowledge contributed by: